Time;durP1;ratioP1;P1;durP2;ratioP2;P2;SDS_P1;SDS_P2;PMS_P1;PMS_P2;Temp;Humidity;BMP_temperature;BMP_pressure;BME280_temperature;BME280_humidity;BME280_pressure;Samples;Min_cycle;Max_cycle;Signal;HPM_P1;HPM_P2
2022/12/29 00:01:31;;;;;;;3.30;1.70;;;9.50;99.90;;;;;;5049192;28;20462;-74
2022/12/29 00:03:56;;;;;;;5.60;1.57;;;9.50;99.90;;;;;;5050041;28;20914;-74
2022/12/29 00:06:22;;;;;;;3.23;1.77;;;9.60;99.90;;;;;;5050435;28;20412;-74
2022/12/29 00:08:47;;;;;;;2.50;0.93;;;9.60;99.90;;;;;;5050415;28;20253;-74
2022/12/29 00:11:16;;;;;;;2.40;1.03;;;9.70;99.90;;;;;;5048872;28;20677;-74
2022/12/29 00:16:27;;;;;;;1.63;1.40;;;9.70;99.90;;;;;;5050534;28;20422;-74
2022/12/29 00:18:53;;;;;;;1.87;1.30;;;9.70;99.90;;;;;;5050271;28;20519;-74
2022/12/29 00:35:27;;;;;;;1.33;1.23;;;9.90;99.90;;;;;;5049453;28;21014;-74
2022/12/29 00:46:06;;;;;;;2.47;1.50;;;10.00;99.90;;;;;;5048920;28;20395;-74
2022/12/29 00:51:15;;;;;;;2.77;1.23;;;10.10;99.90;;;;;;5049011;28;20620;-74
2022/12/29 00:53:41;;;;;;;1.70;1.30;;;10.00;99.90;;;;;;5049464;28;20521;-74
2022/12/29 00:56:06;;;;;;;2.50;1.20;;;10.10;99.90;;;;;;5050012;28;20197;-75
2022/12/29 00:58:32;;;;;;;2.23;1.30;;;10.00;99.90;;;;;;5048979;28;20256;-74
2022/12/29 01:01:05;;;;;;;1.40;1.10;;;10.00;99.90;;;;;;5049914;28;20177;-74
2022/12/29 01:03:31;;;;;;;5.77;1.20;;;10.00;99.90;;;;;;5048526;28;20183;-74
2022/12/29 01:06:00;;;;;;;5.37;1.70;;;10.00;99.90;;;;;;5049304;28;20426;-74
2022/12/29 01:08:27;;;;;;;2.20;1.53;;;9.90;99.90;;;;;;5048745;28;21063;-74
2022/12/29 01:11:05;;;;;;;1.50;1.40;;;9.90;99.90;;;;;;5049766;28;20461;-74
2022/12/29 01:13:31;;;;;;;3.33;1.20;;;9.90;99.90;;;;;;5049031;28;20438;-74
2022/12/29 01:15:57;;;;;;;3.27;1.33;;;9.80;99.90;;;;;;5049939;28;20411;-74
2022/12/29 01:18:24;;;;;;;2.10;1.37;;;9.80;99.90;;;;;;5049142;28;20518;-74
2022/12/29 01:20:49;;;;;;;4.57;1.40;;;9.80;99.90;;;;;;5049874;28;20423;-74
2022/12/29 01:23:15;;;;;;;2.00;1.33;;;9.80;99.90;;;;;;5048648;28;20833;-74
2022/12/29 01:25:40;;;;;;;3.93;3.00;;;9.80;99.90;;;;;;5049314;28;20213;-74
2022/12/29 01:28:08;;;;;;;3.43;1.93;;;9.90;99.90;;;;;;5049420;28;20177;-74
2022/12/29 01:30:34;;;;;;;3.00;1.60;;;9.90;99.90;;;;;;5049673;28;20209;-74
2022/12/29 01:32:59;;;;;;;1.33;1.13;;;10.00;99.90;;;;;;5048747;28;20481;-74
2022/12/29 01:35:25;;;;;;;2.83;1.30;;;10.10;99.90;;;;;;5049896;28;21008;-74
2022/12/29 01:37:50;;;;;;;1.13;1.03;;;10.10;99.90;;;;;;5048979;28;21851;-74
2022/12/29 01:40:16;;;;;;;3.20;1.50;;;10.10;99.90;;;;;;5049513;28;20222;-74
2022/12/29 01:42:41;;;;;;;5.93;1.37;;;10.10;99.90;;;;;;5048754;28;20617;-74
2022/12/29 01:45:14;;;;;;;2.13;1.20;;;10.10;99.90;;;;;;5049791;28;20176;-74
2022/12/29 01:47:44;;;;;;;2.10;0.93;;;10.00;99.90;;;;;;5049395;28;20178;-74
2022/12/29 01:50:10;;;;;;;2.20;1.10;;;10.00;99.90;;;;;;5052475;28;20415;-74
2022/12/29 01:52:41;;;;;;;2.60;1.00;;;10.00;99.90;;;;;;5052330;28;20439;-74
2022/12/29 01:55:09;;;;;;;4.50;1.50;;;10.00;99.90;;;;;;5051996;28;20189;-74
2022/12/29 01:57:39;;;;;;;4.20;0.97;;;10.00;99.90;;;;;;5052872;28;20577;-74
2022/12/29 03:33:12;;;;;;;2.03;0.83;;;9.60;99.90;;;;;;4938723;26;21049;-75
2022/12/29 03:35:40;;;;;;;1.53;1.07;;;9.60;99.90;;;;;;4991527;28;20450;-75
2022/12/29 03:38:18;;;;;;;0.90;0.90;;;9.70;99.90;;;;;;4993231;28;20800;-75
2022/12/29 03:40:48;;;;;;;1.43;0.67;;;9.80;99.90;;;;;;4981343;28;20460;-76
2022/12/29 03:43:14;;;;;;;1.70;1.33;;;9.90;99.90;;;;;;5012320;28;20404;-72
2022/12/29 03:45:40;;;;;;;2.03;0.90;;;10.10;99.90;;;;;;5012436;28;20427;-73
2022/12/29 03:48:06;;;;;;;1.97;1.50;;;10.10;99.90;;;;;;5012580;28;20409;-73
2022/12/29 03:50:31;;;;;;;4.67;0.87;;;10.20;99.90;;;;;;5012340;28;20233;-73
2022/12/29 03:52:57;;;;;;;0.90;0.70;;;10.40;99.90;;;;;;5012311;28;20520;-73
2022/12/29 03:55:22;;;;;;;1.37;0.60;;;10.50;99.90;;;;;;5012057;28;20186;-72
2022/12/29 03:57:48;;;;;;;2.87;1.00;;;10.70;99.90;;;;;;4992222;28;20210;-73
2022/12/29 04:00:14;;;;;;;2.30;1.00;;;10.80;99.90;;;;;;4992353;28;20203;-72
2022/12/29 04:02:39;;;;;;;1.20;0.70;;;10.80;99.90;;;;;;4974382;28;20203;-73
2022/12/29 04:05:06;;;;;;;1.90;0.97;;;10.70;99.90;;;;;;4982237;28;20519;-72
2022/12/29 04:07:31;;;;;;;1.53;0.80;;;10.70;99.90;;;;;;4992298;28;20179;-72
2022/12/29 04:09:57;;;;;;;1.50;0.70;;;10.70;99.90;;;;;;5005346;28;20976;-73
2022/12/29 04:12:22;;;;;;;1.00;0.60;;;10.80;99.90;;;;;;5010450;28;20210;-73
2022/12/29 04:14:48;;;;;;;3.13;0.90;;;10.80;99.90;;;;;;5012152;28;20198;-73
2022/12/29 04:17:13;;;;;;;2.77;0.70;;;10.60;99.90;;;;;;5011980;28;20178;-73
2022/12/29 04:19:39;;;;;;;1.63;1.53;;;10.60;99.90;;;;;;5013001;28;20301;-73
2022/12/29 04:22:04;;;;;;;1.17;1.00;;;10.50;99.90;;;;;;5013127;28;20194;-73
2022/12/29 04:24:30;;;;;;;2.60;0.90;;;10.50;99.90;;;;;;5012403;28;20217;-73
2022/12/29 04:26:55;;;;;;;1.10;0.90;;;10.50;99.90;;;;;;5012660;28;20178;-74
2022/12/29 04:29:21;;;;;;;1.13;1.03;;;10.60;99.90;;;;;;4997945;28;20544;-73
2022/12/29 04:31:47;;;;;;;0.90;0.80;;;10.70;99.90;;;;;;4992903;28;20219;-74
2022/12/29 04:34:12;;;;;;;3.50;1.20;;;10.80;99.90;;;;;;4992425;28;20177;-73
2022/12/29 04:36:39;;;;;;;1.00;1.00;;;10.90;99.90;;;;;;4992408;28;20213;-73
2022/12/29 04:39:05;;;;;;;2.40;1.13;;;10.90;99.90;;;;;;4998152;28;20567;-72
2022/12/29 04:41:31;;;;;;;1.53;1.17;;;10.90;99.90;;;;;;4993764;28;20465;-73
2022/12/29 04:43:56;;;;;;;3.93;1.07;;;11.00;99.90;;;;;;4993730;28;20842;-73
2022/12/29 04:46:22;;;;;;;1.60;1.33;;;11.00;99.90;;;;;;5011541;28;20201;-73
2022/12/29 04:48:47;;;;;;;0.80;0.80;;;11.00;99.90;;;;;;5011595;28;20682;-73
2022/12/29 04:51:13;;;;;;;6.13;1.20;;;11.00;99.90;;;;;;5011479;28;20321;-73
2022/12/29 04:53:38;;;;;;;4.23;1.23;;;11.00;99.90;;;;;;5011026;28;20719;-72
2022/12/29 04:56:04;;;;;;;1.63;0.80;;;11.00;99.90;;;;;;4994672;28;20194;-73
2022/12/29 04:58:30;;;;;;;1.73;1.03;;;11.00;99.90;;;;;;4995420;28;20268;-72
2022/12/29 05:00:55;;;;;;;2.60;1.10;;;10.90;99.90;;;;;;5011119;28;20689;-73
2022/12/29 05:03:21;;;;;;;1.67;0.77;;;11.00;99.90;;;;;;4993604;28;20167;-72
2022/12/29 05:05:46;;;;;;;3.73;1.30;;;11.00;99.90;;;;;;5011664;28;20170;-73
2022/12/29 05:08:12;;;;;;;2.00;0.80;;;11.00;99.90;;;;;;5011008;28;20171;-74
2022/12/29 05:10:37;;;;;;;2.40;1.00;;;11.00;99.90;;;;;;5011425;28;20206;-73
2022/12/29 05:13:03;;;;;;;2.33;1.13;;;11.00;99.90;;;;;;5011073;28;20603;-73
2022/12/29 05:15:28;;;;;;;2.93;1.10;;;11.10;99.90;;;;;;5011014;28;20295;-73
2022/12/29 05:17:54;;;;;;;4.33;1.37;;;11.10;99.90;;;;;;4993683;28;20182;-73
2022/12/29 05:20:20;;;;;;;2.20;1.13;;;11.00;99.90;;;;;;5010902;28;20211;-73
2022/12/29 05:22:45;;;;;;;4.10;1.23;;;11.00;99.90;;;;;;5010574;28;20198;-73
2022/12/29 05:25:11;;;;;;;2.03;1.17;;;11.10;99.90;;;;;;5014564;28;20178;-73
2022/12/29 05:27:37;;;;;;;1.30;1.00;;;11.10;99.90;;;;;;5015006;28;20820;-72
2022/12/29 05:30:02;;;;;;;2.90;1.40;;;11.10;99.90;;;;;;5014609;28;20599;-72
2022/12/29 05:32:28;;;;;;;1.43;1.30;;;11.10;99.90;;;;;;5012006;28;20218;-72
2022/12/29 05:34:53;;;;;;;4.00;1.00;;;11.10;99.90;;;;;;4983816;28;20438;-71
2022/12/29 05:37:19;;;;;;;3.07;1.10;;;11.20;99.90;;;;;;4995429;28;20171;-72
2022/12/29 05:39:44;;;;;;;1.50;1.00;;;11.10;99.90;;;;;;5009195;28;20249;-73
2022/12/29 05:42:10;;;;;;;4.50;1.77;;;11.10;99.90;;;;;;5013796;28;20209;-72
2022/12/29 05:44:35;;;;;;;1.33;1.10;;;11.00;99.90;;;;;;5013737;28;20269;-73
2022/12/29 05:47:01;;;;;;;2.90;1.20;;;11.00;99.90;;;;;;5015017;28;20174;-73
2022/12/29 05:49:27;;;;;;;2.20;1.63;;;10.90;99.90;;;;;;5014506;28;20190;-73
2022/12/29 05:51:52;;;;;;;1.57;1.20;;;10.90;99.90;;;;;;5014628;28;20211;-72
2022/12/29 05:54:17;;;;;;;2.60;1.30;;;11.00;99.90;;;;;;5014503;28;20190;-73
2022/12/29 05:56:43;;;;;;;1.73;1.20;;;11.20;99.90;;;;;;5014714;28;20585;-72
2022/12/29 05:59:09;;;;;;;5.43;1.70;;;11.20;99.90;;;;;;5014760;28;20236;-73
2022/12/29 06:01:34;;;;;;;3.20;1.30;;;11.30;99.90;;;;;;4997143;28;20228;-72
2022/12/29 06:04:00;;;;;;;2.30;1.40;;;11.40;99.90;;;;;;4996677;28;20731;-73
2022/12/29 06:06:25;;;;;;;2.10;0.93;;;11.30;99.90;;;;;;5014468;28;20175;-73
2022/12/29 06:08:51;;;;;;;2.50;1.33;;;11.40;99.90;;;;;;5013984;28;20667;-73
2022/12/29 06:11:17;;;;;;;1.37;1.10;;;11.40;99.90;;;;;;5013974;28;20198;-73
2022/12/29 06:13:42;;;;;;;3.10;1.40;;;11.40;99.90;;;;;;5013972;28;20187;-73
2022/12/29 06:16:08;;;;;;;2.90;1.30;;;11.40;99.90;;;;;;5014501;28;20670;-72
2022/12/29 06:18:33;;;;;;;2.10;1.23;;;11.30;99.90;;;;;;5013753;28;20547;-73
2022/12/29 06:21:04;;;;;;;5.37;1.10;;;11.30;99.90;;;;;;5014085;28;20213;-72
2022/12/29 06:23:30;;;;;;;3.87;1.10;;;11.30;99.90;;;;;;5013463;28;20542;-73
2022/12/29 06:25:56;;;;;;;1.20;1.10;;;11.20;99.90;;;;;;5013845;28;20414;-73
2022/12/29 06:28:21;;;;;;;1.57;1.20;;;11.10;99.90;;;;;;5013379;28;20859;-73
2022/12/29 06:30:47;;;;;;;5.77;1.23;;;11.10;99.90;;;;;;5014014;28;20189;-73
2022/12/29 06:33:13;;;;;;;1.47;1.10;;;11.10;99.90;;;;;;5001196;28;20175;-72
2022/12/29 06:35:39;;;;;;;1.93;1.13;;;11.10;99.90;;;;;;4995463;28;20874;-72
2022/12/29 06:38:05;;;;;;;2.17;1.17;;;11.10;99.90;;;;;;5013948;28;20237;-72
2022/12/29 06:40:31;;;;;;;3.70;1.13;;;11.10;99.90;;;;;;5013537;28;20683;-72
2022/12/29 06:42:56;;;;;;;1.30;1.10;;;11.10;99.90;;;;;;5013436;28;20499;-73
2022/12/29 06:45:22;;;;;;;2.13;1.27;;;11.20;99.90;;;;;;4995634;28;20183;-73
2022/12/29 06:47:47;;;;;;;1.30;1.20;;;11.20;99.90;;;;;;5013743;28;20174;-73
2022/12/29 06:50:13;;;;;;;2.43;1.30;;;11.20;99.90;;;;;;5013323;28;20659;-73
2022/12/29 06:52:38;;;;;;;1.00;0.90;;;11.10;99.90;;;;;;5012751;28;20210;-74
2022/12/29 06:55:04;;;;;;;1.83;1.00;;;11.10;99.90;;;;;;5013659;28;20186;-72
2022/12/29 06:57:30;;;;;;;4.03;1.20;;;11.10;99.90;;;;;;5013081;28;20554;-72
2022/12/29 06:59:55;;;;;;;3.47;1.13;;;11.10;99.90;;;;;;5013349;28;20244;-73
2022/12/29 07:02:21;;;;;;;1.87;1.20;;;11.10;99.90;;;;;;5012597;28;20202;-72
2022/12/29 07:04:47;;;;;;;8.40;1.30;;;11.20;99.90;;;;;;5013442;28;20175;-71
2022/12/29 07:07:12;;;;;;;2.83;1.13;;;11.10;99.90;;;;;;5012904;28;20436;-71
2022/12/29 07:09:38;;;;;;;2.40;1.17;;;11.10;99.90;;;;;;5008034;28;20182;-71
2022/12/29 07:12:03;;;;;;;3.70;1.00;;;11.10;99.90;;;;;;4993555;28;20256;-69
2022/12/29 07:14:29;;;;;;;3.20;1.00;;;11.10;99.90;;;;;;4993543;28;20707;-70
2022/12/29 07:16:54;;;;;;;4.33;1.40;;;11.20;99.90;;;;;;5010893;28;20186;-70
2022/12/29 07:19:20;;;;;;;1.13;1.03;;;11.20;99.90;;;;;;5012728;28;20201;-70
2022/12/29 07:21:46;;;;;;;6.13;1.33;;;11.20;99.90;;;;;;5012471;28;20278;-70
2022/12/29 07:24:11;;;;;;;1.17;1.03;;;11.10;99.90;;;;;;5012238;28;20183;-69
2022/12/29 07:26:36;;;;;;;2.90;1.53;;;11.10;99.90;;;;;;5012928;28;20225;-70
2022/12/29 07:29:05;;;;;;;1.40;1.30;;;11.10;99.90;;;;;;5012490;28;20186;-69
2022/12/29 07:31:30;;;;;;;1.30;1.20;;;11.10;99.90;;;;;;5012164;28;20300;-70
2022/12/29 07:33:56;;;;;;;1.33;0.97;;;11.00;99.90;;;;;;5012741;28;20417;-69
2022/12/29 07:36:21;;;;;;;1.47;1.03;;;11.00;99.90;;;;;;5012564;28;20233;-69
2022/12/29 07:38:47;;;;;;;1.33;1.17;;;10.90;99.90;;;;;;5012351;28;20210;-69
2022/12/29 07:41:13;;;;;;;1.37;1.10;;;10.90;99.90;;;;;;5012242;28;20222;-68
2022/12/29 07:43:38;;;;;;;2.53;1.73;;;10.80;99.90;;;;;;4999335;28;20219;-69
2022/12/29 07:46:04;;;;;;;3.20;1.77;;;10.70;99.90;;;;;;4998250;28;20292;-70
2022/12/29 07:48:29;;;;;;;2.80;1.87;;;10.70;99.90;;;;;;5001086;28;20219;-70
2022/12/29 07:50:55;;;;;;;1.80;1.63;;;10.60;99.90;;;;;;5008795;28;20265;-70
2022/12/29 07:53:21;;;;;;;3.70;1.20;;;10.60;99.90;;;;;;5000248;28;20568;-69
2022/12/29 07:55:46;;;;;;;1.90;1.37;;;10.60;99.90;;;;;;4995468;28;20184;-69
2022/12/29 07:58:12;;;;;;;1.53;1.27;;;10.50;99.90;;;;;;4993853;28;20190;-70
2022/12/29 08:00:38;;;;;;;1.10;1.00;;;10.60;99.90;;;;;;5003888;28;20222;-70
2022/12/29 08:03:04;;;;;;;2.10;1.30;;;10.60;99.90;;;;;;5011887;28;20178;-70
2022/12/29 08:05:31;;;;;;;2.30;1.00;;;10.60;99.90;;;;;;5011969;28;20657;-70
2022/12/29 08:07:56;;;;;;;3.00;1.77;;;10.70;99.90;;;;;;5011551;28;20425;-69
2022/12/29 08:10:22;;;;;;;1.13;1.13;;;10.70;99.90;;;;;;5012217;28;20763;-68
2022/12/29 08:12:47;;;;;;;1.43;1.27;;;10.70;99.90;;;;;;5011470;28;20214;-70
2022/12/29 08:15:13;;;;;;;3.80;1.37;;;10.60;99.90;;;;;;5012149;28;20218;-70
2022/12/29 08:17:38;;;;;;;1.30;1.20;;;10.60;99.90;;;;;;5011621;28;20196;-70
2022/12/29 08:20:05;;;;;;;2.13;1.30;;;10.50;99.90;;;;;;5011245;28;20218;-71
2022/12/29 08:22:31;;;;;;;3.00;1.27;;;10.50;99.90;;;;;;5011481;28;20222;-70
2022/12/29 08:24:56;;;;;;;1.73;1.20;;;10.60;99.90;;;;;;5011115;28;20469;-70
2022/12/29 08:27:22;;;;;;;1.93;1.47;;;10.70;99.90;;;;;;5011640;28;20174;-69
2022/12/29 08:29:48;;;;;;;2.80;1.30;;;10.70;99.90;;;;;;5011188;28;20183;-70
2022/12/29 08:32:14;;;;;;;1.00;0.90;;;10.80;99.90;;;;;;5011340;28;20214;-70
2022/12/29 08:34:39;;;;;;;2.37;1.10;;;10.90;99.90;;;;;;5009333;28;21040;-68
2022/12/29 08:37:05;;;;;;;4.10;1.17;;;11.10;99.90;;;;;;4991307;28;20198;-70
2022/12/29 08:39:30;;;;;;;2.93;0.90;;;11.20;99.90;;;;;;4996351;28;20213;-70
2022/12/29 08:41:56;;;;;;;1.27;1.17;;;11.20;99.90;;;;;;4992919;28;20199;-70
2022/12/29 08:44:21;;;;;;;2.07;1.10;;;11.30;99.90;;;;;;4994538;28;20189;-69
2022/12/29 08:46:47;;;;;;;5.03;1.03;;;11.30;99.90;;;;;;5011137;28;20175;-69
2022/12/29 08:49:13;;;;;;;1.70;1.17;;;11.30;99.90;;;;;;5011152;28;20186;-69
2022/12/29 08:51:38;;;;;;;1.50;1.00;;;11.30;99.90;;;;;;5011044;28;20254;-70
2022/12/29 08:54:04;;;;;;;1.13;1.03;;;11.30;99.90;;;;;;5010905;28;20189;-70
2022/12/29 08:56:29;;;;;;;2.07;1.43;;;11.40;99.90;;;;;;5010718;28;20257;-69
2022/12/29 08:58:55;;;;;;;2.40;1.43;;;11.50;99.90;;;;;;5012514;28;20210;-69
2022/12/29 09:01:21;;;;;;;1.73;1.20;;;11.50;99.90;;;;;;5014133;28;20639;-70
2022/12/29 09:03:47;;;;;;;2.17;1.53;;;11.50;99.90;;;;;;5002257;28;20643;-69
2022/12/29 09:06:14;;;;;;;1.10;1.10;;;11.60;99.90;;;;;;5003283;28;20201;-70
2022/12/29 09:08:40;;;;;;;4.10;1.50;;;11.60;99.90;;;;;;5014352;28;20429;-69
2022/12/29 09:11:11;;;;;;;3.70;2.17;;;11.60;99.90;;;;;;4996743;28;20528;-68
2022/12/29 09:13:37;;;;;;;4.90;2.37;;;11.70;99.90;;;;;;5015072;28;20793;-70
2022/12/29 09:16:03;;;;;;;1.87;1.77;;;11.70;99.90;;;;;;5015134;28;20436;-69
2022/12/29 09:18:29;;;;;;;2.40;1.07;;;11.80;99.90;;;;;;5014943;28;20417;-70
2022/12/29 09:21:03;;;;;;;1.77;1.40;;;11.90;99.90;;;;;;5014955;28;20444;-69
2022/12/29 09:23:30;;;;;;;1.50;0.97;;;11.90;99.90;;;;;;5014941;28;20405;-70
2022/12/29 09:25:55;;;;;;;4.00;1.33;;;12.00;99.90;;;;;;5014978;28;20914;-70
2022/12/29 09:28:22;;;;;;;2.20;1.03;;;12.10;99.90;;;;;;5003122;28;20428;-70
2022/12/29 09:30:48;;;;;;;2.40;1.00;;;12.20;99.90;;;;;;4995601;28;20195;-70
2022/12/29 09:33:14;;;;;;;2.40;1.20;;;12.30;99.90;;;;;;4993973;28;20961;-70
2022/12/29 09:35:50;;;;;;;2.30;1.23;;;12.40;99.90;;;;;;4995785;28;20501;-70
2022/12/29 09:38:16;;;;;;;3.17;1.50;;;12.50;99.90;;;;;;5007739;28;20428;-70
2022/12/29 09:40:45;;;;;;;1.33;0.83;;;12.60;99.90;;;;;;5014635;28;20514;-70
2022/12/29 09:43:46;;;;;;;2.43;1.20;;;12.70;99.90;;;;;;5014490;28;20457;-69
2022/12/29 09:46:36;;;;;;;2.53;1.20;;;12.70;99.90;;;;;;5014483;28;20835;-70
2022/12/29 09:49:22;;;;;;;2.87;1.27;;;12.90;99.90;;;;;;5014706;28;20414;-70
2022/12/29 09:51:54;;;;;;;2.00;1.20;;;13.00;99.90;;;;;;5014158;28;20449;-70
2022/12/29 09:54:31;;;;;;;1.30;1.20;;;13.10;99.90;;;;;;4996575;28;20422;-70
2022/12/29 09:56:56;;;;;;;4.93;1.10;;;13.20;99.90;;;;;;5003135;28;20793;-70
2022/12/29 09:59:32;;;;;;;2.40;0.90;;;13.50;99.90;;;;;;5013472;28;20560;-70
2022/12/29 10:02:31;;;;;;;1.23;0.90;;;13.60;99.90;;;;;;4995965;28;20257;-70
2022/12/29 10:04:56;;;;;;;0.90;0.90;;;13.60;99.90;;;;;;5014687;28;20445;-70
2022/12/29 10:07:36;;;;;;;2.77;1.03;;;13.60;99.90;;;;;;5016175;28;20449;-70
2022/12/29 10:10:24;;;;;;;1.17;0.90;;;13.40;99.90;;;;;;5009013;28;20683;-71
2022/12/29 10:13:27;;;;;;;1.13;0.90;;;13.40;99.90;;;;;;5014304;28;20438;-70
2022/12/29 10:16:08;;;;;;;2.50;1.13;;;13.40;99.90;;;;;;5014437;28;20445;-73
2022/12/29 10:19:04;;;;;;;1.87;1.30;;;13.30;99.90;;;;;;5014573;28;20398;-72
2022/12/29 10:22:09;;;;;;;1.70;1.30;;;13.30;99.90;;;;;;5012982;28;20452;-73
2022/12/29 10:24:38;;;;;;;1.13;0.90;;;13.30;99.90;;;;;;4989105;28;20426;-73
2022/12/29 10:27:10;;;;;;;1.23;1.13;;;13.40;99.90;;;;;;5013791;28;20414;-72
2022/12/29 10:29:46;;;;;;;1.87;1.40;;;13.40;99.90;;;;;;5013819;28;20803;-74
2022/12/29 10:32:48;;;;;;;1.00;1.00;;;13.40;99.90;;;;;;5013774;28;20461;-73
2022/12/29 10:35:18;;;;;;;1.07;0.97;;;13.30;99.90;;;;;;5014045;28;20769;-73
2022/12/29 10:37:49;;;;;;;3.10;1.23;;;13.40;99.90;;;;;;5013970;28;20434;-72
2022/12/29 10:40:37;;;;;;;2.17;0.80;;;13.50;99.90;;;;;;5013451;28;20457;-72
2022/12/29 10:43:16;;;;;;;1.97;1.10;;;13.60;99.90;;;;;;5013604;28;20937;-73
2022/12/29 10:45:42;;;;;;;0.80;0.80;;;13.70;99.90;;;;;;5011262;28;20421;-72
2022/12/29 10:48:22;;;;;;;1.53;1.10;;;13.80;99.90;;;;;;5013674;28;20402;-73
2022/12/29 10:50:49;;;;;;;3.10;0.70;;;13.90;99.90;;;;;;5013776;28;20237;-73
2022/12/29 10:53:24;;;;;;;2.30;0.80;;;13.90;99.90;;;;;;5013440;28;20934;-70
2022/12/29 10:55:51;;;;;;;0.80;0.60;;;14.00;99.90;;;;;;5013908;28;20463;-70
2022/12/29 10:58:17;;;;;;;1.27;0.90;;;14.10;99.90;;;;;;5013598;28;20780;-73
2022/12/29 11:00:49;;;;;;;1.20;1.13;;;14.40;99.90;;;;;;4996097;28;20469;-73
2022/12/29 11:03:17;;;;;;;1.10;0.90;;;14.60;99.90;;;;;;5013440;28;20414;-70
2022/12/29 11:05:54;;;;;;;0.63;0.63;;;14.80;99.90;;;;;;4982211;28;20430;-69
2022/12/29 11:08:24;;;;;;;5.03;1.10;;;14.80;99.90;;;;;;4992146;28;20414;-70
2022/12/29 11:11:08;;;;;;;2.20;1.53;;;14.70;99.90;;;;;;5006703;28;20424;-71
2022/12/29 11:13:46;;;;;;;1.13;1.03;;;14.50;99.90;;;;;;4986076;28;21337;-70
2022/12/29 11:16:12;;;;;;;1.80;0.90;;;14.40;99.90;;;;;;4992806;28;20468;-70
2022/12/29 11:18:40;;;;;;;3.03;0.93;;;14.40;99.90;;;;;;4992996;28;20450;-71
2022/12/29 11:21:23;;;;;;;1.90;0.97;;;14.40;99.90;;;;;;4997883;28;20890;-69
2022/12/29 11:23:56;;;;;;;1.30;1.00;;;14.40;99.90;;;;;;5007540;28;20414;-71
2022/12/29 11:26:24;;;;;;;0.90;0.80;;;14.30;99.90;;;;;;5010443;28;20773;-71
2022/12/29 11:29:07;;;;;;;1.13;0.80;;;14.30;99.90;;;;;;5010390;28;20457;-71
2022/12/29 11:32:09;;;;;;;1.53;0.80;;;14.20;99.90;;;;;;5008791;28;20561;-70
2022/12/29 11:34:36;;;;;;;1.10;0.77;;;14.10;99.90;;;;;;4992978;28;20436;-71
2022/12/29 11:37:09;;;;;;;1.30;1.20;;;14.10;99.90;;;;;;5009982;28;20925;-71
2022/12/29 11:39:50;;;;;;;1.57;1.00;;;14.00;99.90;;;;;;5011289;28;20936;-71
2022/12/29 11:42:18;;;;;;;1.77;0.67;;;13.90;99.90;;;;;;4995530;28;20441;-72
2022/12/29 11:44:47;;;;;;;1.63;0.73;;;13.80;99.90;;;;;;5009871;28;20518;-71
2022/12/29 11:47:26;;;;;;;2.67;0.60;;;13.70;99.90;;;;;;4999758;28;20418;-70
2022/12/29 11:49:56;;;;;;;1.97;0.70;;;13.70;99.90;;;;;;5005162;28;20421;-72
2022/12/29 11:52:27;;;;;;;1.20;0.50;;;13.60;99.90;;;;;;5009453;28;20922;-72
2022/12/29 11:54:54;;;;;;;1.60;0.90;;;13.60;99.90;;;;;;5003676;28;20494;-71
2022/12/29 11:57:21;;;;;;;1.37;1.10;;;13.50;99.90;;;;;;4992231;28;21061;-70
2022/12/29 11:59:55;;;;;;;4.00;1.20;;;13.30;99.90;;;;;;4997406;28;20477;-72
2022/12/29 12:02:33;;;;;;;2.40;1.10;;;13.10;99.90;;;;;;5003701;28;20593;-72
2022/12/29 12:05:28;;;;;;;4.40;1.13;;;13.00;99.90;;;;;;4992829;28;20410;-72
2022/12/29 12:08:09;;;;;;;1.23;0.90;;;12.60;99.90;;;;;;4964560;28;20908;-72
2022/12/29 12:10:51;;;;;;;1.00;0.90;;;12.50;99.90;;;;;;4992575;28;20418;-72
2022/12/29 12:13:25;;;;;;;1.87;1.30;;;12.30;99.90;;;;;;4992638;28;20419;-72
2022/12/29 12:16:00;;;;;;;1.53;1.43;;;12.30;99.90;;;;;;4993293;28;20425;-72
2022/12/29 12:18:42;;;;;;;0.93;0.93;;;12.30;99.90;;;;;;4993289;28;20441;-72
2022/12/29 12:21:33;;;;;;;2.13;1.40;;;12.30;99.90;;;;;;4992369;28;20821;-71
2022/12/29 12:24:10;;;;;;;0.83;0.83;;;12.40;99.90;;;;;;4992639;28;20414;-72
2022/12/29 12:27:03;;;;;;;1.87;1.53;;;12.40;99.90;;;;;;4992148;28;20501;-72
2022/12/29 12:29:51;;;;;;;1.47;1.00;;;12.40;99.90;;;;;;4978047;28;20510;-72
2022/12/29 12:32:48;;;;;;;1.00;1.00;;;12.50;99.90;;;;;;4991649;28;20472;-71
2022/12/29 12:35:17;;;;;;;1.10;1.00;;;12.60;99.90;;;;;;4991176;28;20441;-71
2022/12/29 12:38:04;;;;;;;2.70;1.57;;;12.70;99.90;;;;;;4992084;28;20415;-72
2022/12/29 12:40:42;;;;;;;5.30;1.33;;;12.80;99.90;;;;;;4991887;28;20453;-72
2022/12/29 12:43:24;;;;;;;2.60;0.90;;;12.80;99.90;;;;;;4991808;28;20493;-72
2022/12/29 12:46:12;;;;;;;1.57;1.20;;;12.90;99.90;;;;;;4990022;28;20427;-71
2022/12/29 12:48:55;;;;;;;2.93;1.03;;;12.90;99.90;;;;;;4991750;28;20426;-71
2022/12/29 12:51:39;;;;;;;1.20;1.20;;;13.00;99.90;;;;;;4992651;28;20548;-71
2022/12/29 12:54:30;;;;;;;2.70;1.07;;;13.10;99.90;;;;;;4980579;28;20461;-72
2022/12/29 12:57:17;;;;;;;1.17;1.10;;;13.30;99.90;;;;;;5002656;28;21040;-71
2022/12/29 12:59:57;;;;;;;1.43;1.17;;;13.30;99.90;;;;;;4973634;28;20479;-72
2022/12/29 13:02:47;;;;;;;0.97;0.97;;;13.20;99.90;;;;;;4998767;28;21040;-71
2022/12/29 13:05:25;;;;;;;1.57;1.10;;;13.30;99.90;;;;;;5004469;28;20442;-72
2022/12/29 13:08:20;;;;;;;2.33;1.67;;;13.40;99.90;;;;;;4997597;28;20464;-72
2022/12/29 13:10:55;;;;;;;4.33;1.53;;;13.40;99.90;;;;;;4990526;28;20915;-70
2022/12/29 13:13:44;;;;;;;1.30;0.97;;;13.40;99.90;;;;;;4989019;28;20476;-72
2022/12/29 13:16:27;;;;;;;2.13;1.33;;;13.30;99.90;;;;;;4990270;28;20476;-71
2022/12/29 13:19:26;;;;;;;1.83;1.50;;;13.40;99.90;;;;;;4996679;28;20974;-71
2022/12/29 13:21:57;;;;;;;1.17;1.17;;;13.50;99.90;;;;;;5003465;28;20442;-72
2022/12/29 13:25:06;;;;;;;1.07;1.03;;;13.50;99.90;;;;;;4999980;28;20450;-71
2022/12/29 13:27:44;;;;;;;2.30;1.30;;;13.50;99.90;;;;;;4957579;28;21078;-71
2022/12/29 13:30:21;;;;;;;1.77;1.53;;;13.40;99.90;;;;;;5002208;28;20518;-72
2022/12/29 13:32:59;;;;;;;2.00;1.10;;;13.30;99.90;;;;;;4989218;28;20517;-73
2022/12/29 13:35:46;;;;;;;2.77;1.30;;;13.20;99.90;;;;;;4993659;28;20974;-73
2022/12/29 13:38:19;;;;;;;1.00;1.00;;;13.10;99.90;;;;;;4990001;28;20549;-72
2022/12/29 13:40:49;;;;;;;1.90;1.10;;;13.10;99.90;;;;;;5009637;28;20556;-73
2022/12/29 13:43:16;;;;;;;1.03;0.97;;;13.00;99.90;;;;;;4992833;28;21000;-72
2022/12/29 13:45:45;;;;;;;1.13;1.13;;;13.00;99.90;;;;;;5011880;28;20465;-72
2022/12/29 13:48:31;;;;;;;3.13;1.20;;;12.90;99.90;;;;;;4994949;28;20476;-71
2022/12/29 13:50:59;;;;;;;3.73;1.00;;;12.90;99.90;;;;;;4992050;28;20987;-71
2022/12/29 13:53:42;;;;;;;0.80;0.80;;;12.90;99.90;;;;;;4992839;28;20558;-71
2022/12/29 13:56:25;;;;;;;1.53;1.43;;;12.90;99.90;;;;;;5005066;28;20457;-71
2022/12/29 13:59:05;;;;;;;1.30;0.93;;;12.90;99.90;;;;;;5006743;28;20484;-72
2022/12/29 14:01:37;;;;;;;1.67;1.17;;;12.90;99.90;;;;;;5007351;28;20481;-71
2022/12/29 14:04:11;;;;;;;2.93;1.27;;;12.90;99.90;;;;;;5004744;28;21046;-72
2022/12/29 14:06:40;;;;;;;1.37;1.27;;;12.80;99.90;;;;;;4994181;28;20436;-72
2022/12/29 14:09:26;;;;;;;1.60;1.47;;;12.80;99.90;;;;;;4994789;28;20516;-72
2022/12/29 14:11:52;;;;;;;1.47;1.07;;;12.90;99.90;;;;;;4993920;28;20978;-73
2022/12/29 14:14:25;;;;;;;1.53;1.00;;;12.90;99.90;;;;;;4998949;28;20417;-71
2022/12/29 14:16:53;;;;;;;2.47;1.53;;;12.80;99.90;;;;;;4997985;28;20418;-72
2022/12/29 14:19:41;;;;;;;2.50;1.73;;;12.80;99.90;;;;;;4994798;28;20546;-71
2022/12/29 14:22:07;;;;;;;2.20;1.50;;;12.80;99.90;;;;;;4996433;28;20493;-72
2022/12/29 14:24:36;;;;;;;3.30;1.00;;;12.80;99.90;;;;;;4994312;28;20922;-72
2022/12/29 14:27:21;;;;;;;1.20;1.10;;;12.70;99.90;;;;;;4998296;28;20512;-72
2022/12/29 14:29:51;;;;;;;2.70;1.40;;;12.60;99.90;;;;;;4993650;28;20415;-73
2022/12/29 14:32:26;;;;;;;1.83;1.20;;;12.60;99.90;;;;;;4996741;28;20458;-73
2022/12/29 14:34:54;;;;;;;2.30;0.87;;;12.60;99.90;;;;;;4991989;28;20426;-73
2022/12/29 14:37:30;;;;;;;4.00;1.20;;;12.60;99.90;;;;;;4994627;28;20426;-72
2022/12/29 14:40:24;;;;;;;5.23;1.63;;;12.50;99.90;;;;;;4992238;28;20462;-73
2022/12/29 14:42:53;;;;;;;1.30;1.20;;;12.50;99.90;;;;;;4989740;28;20454;-73
2022/12/29 14:45:18;;;;;;;1.33;1.23;;;12.40;99.90;;;;;;4993972;28;20410;-73
2022/12/29 14:47:46;;;;;;;3.90;1.40;;;12.30;99.90;;;;;;5002110;28;20962;-73
2022/12/29 14:50:17;;;;;;;2.00;1.03;;;12.20;99.90;;;;;;4994115;28;20770;-73
2022/12/29 14:52:54;;;;;;;4.57;1.95;;;12.20;99.90;;;;;;4993746;28;20937;-72
2022/12/29 14:55:39;;;;;;;6.00;1.20;;;12.20;99.90;;;;;;4992314;28;20223;-72
2022/12/29 14:58:11;;;;;;;5.23;1.70;;;12.20;99.90;;;;;;4995086;28;20458;-74
2022/12/29 15:00:38;;;;;;;1.20;1.20;;;12.20;99.90;;;;;;4992124;28;20747;-72
2022/12/29 15:03:31;;;;;;;1.73;1.00;;;12.20;99.90;;;;;;4994846;28;20474;-72
2022/12/29 15:06:11;;;;;;;1.30;1.20;;;12.20;99.90;;;;;;4984632;28;20875;-73
2022/12/29 15:09:02;;;;;;;1.63;1.00;;;12.10;99.90;;;;;;4990508;28;20892;-72